Time;durP1;ratioP1;P1;durP2;ratioP2;P2;SDS_P1;SDS_P2;PMS_P1;PMS_P2;Temp;Humidity;BMP_temperature;BMP_pressure;BME280_temperature;BME280_humidity;BME280_pressure;Samples;Min_cycle;Max_cycle;Signal;HPM_P1;HPM_P2
2022/12/03 00:00:46;;;;;;;23.83;15.40;;;;;;;1.91;100.00;151857.69;4974075;28;20429;-76
2022/12/03 00:03:34;;;;;;;20.47;13.97;;;;;;;1.92;100.00;151858.97;4981226;28;20488;-76
2022/12/03 00:06:21;;;;;;;22.70;15.03;;;;;;;1.91;100.00;151856.44;4986715;28;20449;-76
2022/12/03 00:09:06;;;;;;;21.00;13.73;;;;;;;1.86;100.00;151844.84;4986749;28;21023;-76
2022/12/03 00:11:51;;;;;;;19.90;14.10;;;;;;;1.87;100.00;151847.41;4982167;28;20563;-76
2022/12/03 00:14:36;;;;;;;24.77;16.37;;;;;;;1.92;100.00;151858.97;4989488;28;20507;-76
2022/12/03 00:17:22;;;;;;;26.77;15.80;;;;;;;1.93;100.00;151862.88;4986563;28;20432;-76
2022/12/03 00:20:08;;;;;;;24.50;16.10;;;;;;;1.94;100.00;151865.41;4985074;28;20540;-76
2022/12/03 00:22:55;;;;;;;21.47;14.30;;;;;;;1.95;100.00;151866.69;4992195;28;21002;-76
2022/12/03 00:25:40;;;;;;;19.93;14.43;;;;;;;1.94;100.00;151865.41;4987951;28;20438;-76
2022/12/03 00:28:25;;;;;;;22.13;13.73;;;;;;;1.95;100.00;151868.00;4976570;28;20461;-76
2022/12/03 00:31:11;;;;;;;21.03;13.73;;;;;;;1.95;100.00;151868.00;4990465;28;20588;-76
2022/12/03 00:33:56;;;;;;;22.07;13.97;;;;;;;1.97;100.00;151871.81;4988958;28;20797;-76
2022/12/03 00:36:42;;;;;;;21.47;14.33;;;;;;;1.97;100.00;151873.13;4992781;28;20413;-76
2022/12/03 00:39:28;;;;;;;18.40;13.13;;;;;;;1.98;100.00;151875.72;4993134;28;20437;-76
2022/12/03 00:42:14;;;;;;;22.77;13.57;;;;;;;1.97;100.00;151873.13;4990278;28;20472;-76
2022/12/03 00:44:59;;;;;;;19.13;13.87;;;;;;;1.99;100.00;151878.25;4992728;28;20441;-76
2022/12/03 00:47:44;;;;;;;18.60;12.87;;;;;;;1.99;100.00;151878.25;4972932;28;20548;-76
2022/12/03 00:50:30;;;;;;;21.03;12.70;;;;;;;1.99;100.00;151878.25;4972639;28;20430;-76
2022/12/03 00:53:15;;;;;;;25.10;15.17;;;;;;;2.02;100.00;151885.97;4982808;28;20592;-76
2022/12/03 00:56:02;;;;;;;19.73;13.03;;;;;;;2.06;100.00;151896.28;4992324;28;20906;-76
2022/12/03 00:58:48;;;;;;;23.43;14.00;;;;;;;2.09;100.00;151903.94;4977098;28;20916;-76
2022/12/03 01:01:33;;;;;;;19.80;12.90;;;;;;;2.11;100.00;151907.84;4990430;28;20500;-76
2022/12/03 01:04:19;;;;;;;18.70;12.40;;;;;;;2.14;100.00;151916.84;4993764;28;20916;-76
2022/12/03 01:07:04;;;;;;;18.40;13.20;;;;;;;2.15;100.00;151918.09;4995627;28;20816;-76
2022/12/03 01:09:50;;;;;;;20.07;13.07;;;;;;;2.18;100.00;151927.13;4994564;28;20819;-76
2022/12/03 01:12:36;;;;;;;20.80;12.60;;;;;;;2.20;100.00;151932.25;4992989;28;20536;-76
2022/12/03 01:15:22;;;;;;;18.97;12.47;;;;;;;2.22;100.00;151937.44;4996008;28;20445;-76
2022/12/03 01:18:07;;;;;;;18.63;12.40;;;;;;;2.25;100.00;151945.09;4992836;28;20448;-76
2022/12/03 01:20:52;;;;;;;19.70;14.80;;;;;;;2.28;100.00;151952.81;4994664;28;20457;-76
2022/12/03 01:23:38;;;;;;;19.63;14.57;;;;;;;2.29;100.00;151955.41;4995060;28;20432;-76
2022/12/03 01:26:24;;;;;;;18.47;13.03;;;;;;;2.32;100.00;151963.13;4994504;28;20980;-76
2022/12/03 01:29:11;;;;;;;19.47;13.30;;;;;;;2.34;100.00;151966.97;4995942;28;20549;-76
2022/12/03 01:34:59;;;;;;;18.80;12.10;;;;;;;2.25;100.00;151945.09;4997028;28;20537;-76
2022/12/03 01:37:45;;;;;;;21.00;14.03;;;;;;;2.32;100.00;151961.84;4996625;28;20520;-76
2022/12/03 01:40:30;;;;;;;20.83;14.10;;;;;;;2.24;100.00;151941.25;4995364;28;20956;-76
2022/12/03 01:43:15;;;;;;;19.70;13.57;;;;;;;2.29;100.00;151954.13;4994817;28;20413;-76
2022/12/03 01:46:02;;;;;;;21.20;13.57;;;;;;;2.30;100.00;151957.94;4994125;28;20468;-76
2022/12/03 01:48:48;;;;;;;20.07;13.60;;;;;;;2.31;100.00;151959.25;4992784;28;20612;-76
2022/12/03 01:51:33;;;;;;;22.60;15.00;;;;;;;2.31;100.00;151960.53;4975749;28;20433;-76
2022/12/03 01:54:20;;;;;;;21.20;13.27;;;;;;;2.29;100.00;151955.41;4976071;28;20517;-76
2022/12/03 01:57:06;;;;;;;18.40;12.73;;;;;;;2.27;100.00;151948.97;4994403;28;20520;-76
2022/12/03 01:59:52;;;;;;;21.37;13.40;;;;;;;2.31;100.00;151960.53;4994679;28;20440;-75
2022/12/03 02:02:39;;;;;;;18.90;12.70;;;;;;;2.29;100.00;151955.41;4993237;28;20421;-76
2022/12/03 02:05:28;;;;;;;16.70;12.17;;;;;;;2.32;100.00;151963.13;5013841;28;20436;-76
2022/12/03 02:08:27;;;;;;;17.27;12.93;;;;;;;2.33;100.00;151964.44;5000589;28;20608;-76
2022/12/03 02:11:18;;;;;;;20.77;12.77;;;;;;;2.35;100.00;151970.84;4993705;28;20460;-76
2022/12/03 02:14:06;;;;;;;19.80;13.90;;;;;;;2.30;100.00;151956.72;4973948;28;20411;-76
2022/12/03 02:16:51;;;;;;;19.97;12.40;;;;;;;2.37;100.00;151976.00;4984011;28;20445;-76
2022/12/03 02:19:38;;;;;;;18.33;12.57;;;;;;;2.37;100.00;151976.00;4994660;28;20432;-76
2022/12/03 02:22:30;;;;;;;19.97;13.40;;;;;;;2.37;100.00;151976.00;4993988;28;20535;-76
2022/12/03 02:25:18;;;;;;;17.77;12.80;;;;;;;2.35;100.00;151970.84;4994446;28;20515;-76
2022/12/03 02:28:05;;;;;;;19.83;13.43;;;;;;;2.37;100.00;151976.00;4992544;28;20859;-76
2022/12/03 02:30:50;;;;;;;19.83;13.17;;;;;;;2.35;100.00;151970.84;4992088;28;20571;-76
2022/12/03 02:33:36;;;;;;;19.73;13.10;;;;;;;2.36;100.00;151973.41;4994034;28;20496;-76
2022/12/03 02:36:21;;;;;;;15.37;12.27;;;;;;;2.33;100.00;151965.66;4992835;28;20504;-76
2022/12/03 02:39:07;;;;;;;18.87;13.37;;;;;;;2.32;100.00;151961.84;5004539;28;20585;-76
2022/12/03 02:44:57;;;;;;;16.37;12.23;;;;;;;2.34;100.00;151968.25;4993802;28;20769;-75
2022/12/03 02:47:43;;;;;;;20.60;13.77;;;;;;;2.31;100.00;151960.53;4989204;28;20480;-76
2022/12/03 02:50:31;;;;;;;18.27;12.97;;;;;;;2.23;100.00;151939.97;4974066;28;20434;-76
2022/12/03 02:53:19;;;;;;;23.37;13.50;;;;;;;2.23;100.00;151939.97;4959298;28;20465;-76
2022/12/03 02:56:05;;;;;;;19.47;12.77;;;;;;;2.30;100.00;151957.94;4990630;28;20604;-76
2022/12/03 02:58:54;;;;;;;17.33;12.70;;;;;;;2.29;100.00;151955.41;4991201;28;20785;-75
2022/12/03 03:01:39;;;;;;;19.33;13.00;;;;;;;2.26;100.00;151946.41;4981540;28;20804;-76
2022/12/03 03:04:25;;;;;;;18.63;12.27;;;;;;;2.29;100.00;151955.41;4992227;28;20616;-76
2022/12/03 03:07:10;;;;;;;23.53;13.33;;;;;;;2.21;100.00;151934.84;4993901;28;20412;-76
2022/12/03 03:09:55;;;;;;;18.47;13.20;;;;;;;2.23;100.00;151939.97;4975444;28;20983;-76
2022/12/03 03:12:41;;;;;;;22.60;13.60;;;;;;;2.25;100.00;151945.09;4985279;28;20531;-76
2022/12/03 03:15:27;;;;;;;18.10;13.00;;;;;;;2.25;100.00;151945.09;4994030;28;20439;-76
2022/12/03 03:18:14;;;;;;;17.00;13.30;;;;;;;2.25;100.00;151945.09;4991018;28;20448;-76
2022/12/03 03:20:59;;;;;;;17.67;12.53;;;;;;;2.28;100.00;151952.81;4991709;28;20449;-76
2022/12/03 03:23:44;;;;;;;16.07;11.73;;;;;;;2.26;100.00;151947.69;4993307;28;20421;-76
2022/12/03 03:26:30;;;;;;;17.53;13.50;;;;;;;2.26;100.00;151947.69;4993290;28;20437;-76
2022/12/03 03:29:15;;;;;;;18.90;12.30;;;;;;;2.24;100.00;151942.56;4990728;28;20472;-76
2022/12/03 03:32:03;;;;;;;19.80;13.50;;;;;;;2.27;100.00;151948.97;4990445;28;20484;-76
2022/12/03 03:34:48;;;;;;;19.00;12.83;;;;;;;2.26;100.00;151947.69;4993071;28;20441;-76
2022/12/03 03:37:34;;;;;;;20.10;13.53;;;;;;;2.29;100.00;151955.41;4976733;28;20936;-76
2022/12/03 03:40:20;;;;;;;20.57;14.27;;;;;;;2.28;100.00;151952.81;4991449;28;20468;-76
2022/12/03 03:43:06;;;;;;;19.57;14.33;;;;;;;2.28;100.00;151951.53;4995628;28;20531;-78
2022/12/03 03:45:52;;;;;;;23.77;12.67;;;;;;;2.32;100.00;151961.84;4998339;28;20448;-76
2022/12/03 03:48:39;;;;;;;20.40;12.77;;;;;;;2.33;100.00;151964.44;4979007;28;21063;-76
2022/12/03 03:51:25;;;;;;;18.00;12.90;;;;;;;2.28;100.00;151951.53;4993158;28;20429;-76
2022/12/03 03:54:10;;;;;;;17.77;12.50;;;;;;;2.25;100.00;151945.09;4992752;28;20413;-77
2022/12/03 03:56:56;;;;;;;18.97;13.17;;;;;;;2.29;100.00;151954.13;4982520;28;20456;-76
2022/12/03 03:59:41;;;;;;;21.87;13.60;;;;;;;2.29;100.00;151955.41;4992109;28;20536;-76
2022/12/03 04:02:27;;;;;;;22.53;13.67;;;;;;;2.27;100.00;151948.97;4993915;28;20437;-76
2022/12/03 04:05:17;;;;;;;22.27;12.70;;;;;;;2.23;100.00;151939.97;4990587;28;20470;-76
2022/12/03 04:08:02;;;;;;;20.50;14.20;;;;;;;2.26;100.00;151946.41;4991429;28;20465;-76
2022/12/03 04:13:50;;;;;;;20.47;13.20;;;;;;;2.31;100.00;151959.25;4992415;28;20441;-76
2022/12/03 04:16:51;;;;;;;18.13;12.73;;;;;;;2.28;100.00;151952.81;4976965;28;20520;-76
2022/12/03 04:19:36;;;;;;;20.17;13.10;;;;;;;2.30;100.00;151957.94;4978781;28;20429;-76
2022/12/03 04:22:40;;;;;;;18.67;13.20;;;;;;;2.29;100.00;151955.41;4992821;28;20418;-75
2022/12/03 04:37:39;;;;;;;20.70;12.87;;;;;;;2.30;100.00;151957.94;4985357;28;20533;-76
2022/12/03 04:44:31;;;;;;;22.97;14.43;;;;;;;2.32;100.00;151963.13;4956877;28;20475;-76
2022/12/03 04:46:40;;;;;;;20.13;13.20;;;;;;;2.32;100.00;151961.84;4995864;28;20428;-76
2022/12/03 04:49:26;;;;;;;23.10;13.07;;;;;;;2.32;100.00;151963.13;4995480;28;20460;-76
2022/12/03 04:52:12;;;;;;;20.10;14.13;;;;;;;2.30;100.00;151957.94;4989715;28;20440;-76
2022/12/03 04:54:59;;;;;;;22.93;14.30;;;;;;;2.32;100.00;151961.84;4990406;28;20491;-76
2022/12/03 04:57:44;;;;;;;23.37;15.70;;;;;;;2.32;100.00;151963.13;4988413;28;20456;-76
2022/12/03 05:00:29;;;;;;;22.10;13.80;;;;;;;2.34;100.00;151968.25;4986278;28;20569;-76
2022/12/03 05:03:14;;;;;;;20.90;13.80;;;;;;;2.33;100.00;151964.44;4992768;28;20462;-76
2022/12/03 05:06:00;;;;;;;20.50;13.13;;;;;;;2.31;100.00;151960.53;4993607;28;20452;-76
2022/12/03 05:08:45;;;;;;;22.27;14.50;;;;;;;2.33;100.00;151965.66;4991149;28;20465;-76
2022/12/03 05:11:32;;;;;;;19.00;13.20;;;;;;;2.31;100.00;151960.53;4999879;28;20467;-76
2022/12/03 05:14:18;;;;;;;21.33;15.37;;;;;;;2.34;100.00;151968.25;4998990;28;20441;-76
2022/12/03 05:17:03;;;;;;;19.27;13.63;;;;;;;2.35;100.00;151970.84;4999359;28;20955;-76
2022/12/03 05:22:52;;;;;;;19.20;12.87;;;;;;;2.35;100.00;151969.56;4994604;28;20452;-76
2022/12/03 05:25:37;;;;;;;21.23;13.63;;;;;;;2.37;100.00;151974.69;4985518;28;20476;-76
2022/12/03 05:28:24;;;;;;;27.00;14.60;;;;;;;2.31;100.00;151960.53;4988668;28;20620;-76
2022/12/03 05:31:09;;;;;;;23.10;14.47;;;;;;;2.34;100.00;151968.25;4992542;28;20444;-76
2022/12/03 05:33:54;;;;;;;21.77;13.83;;;;;;;2.36;100.00;151972.09;4997115;28;20482;-76
2022/12/03 05:36:40;;;;;;;23.33;14.07;;;;;;;2.55;100.00;152020.97;4987961;28;20512;-76
2022/12/03 05:39:25;;;;;;;19.87;12.60;;;;;;;2.52;100.00;152011.97;4984928;28;20556;-76
2022/12/03 05:45:16;;;;;;;18.83;12.77;;;;;;;2.44;100.00;151992.69;4983192;28;20483;-76
2022/12/03 05:48:02;;;;;;;20.97;13.60;;;;;;;2.44;100.00;151993.97;4995243;28;20659;-76
2022/12/03 05:50:47;;;;;;;19.43;12.83;;;;;;;2.45;100.00;151996.56;5001350;28;20525;-76
2022/12/03 05:53:32;;;;;;;21.17;13.07;;;;;;;2.43;100.00;151990.13;4996158;28;20916;-76
2022/12/03 05:56:17;;;;;;;19.63;12.40;;;;;;;2.44;100.00;151993.97;4991175;28;20609;-76
2022/12/03 05:59:03;;;;;;;19.33;13.20;;;;;;;2.44;100.00;151993.97;4991375;28;20405;-76
2022/12/03 06:01:49;;;;;;;20.50;12.83;;;;;;;2.44;100.00;151993.97;4991288;28;20453;-76
2022/12/03 06:04:35;;;;;;;20.33;13.83;;;;;;;2.42;100.00;151988.84;4981726;28;20433;-76
2022/12/03 06:07:20;;;;;;;18.47;13.40;;;;;;;2.42;100.00;151988.84;5007315;28;20421;-76
2022/12/03 06:10:07;;;;;;;19.67;12.87;;;;;;;2.47;100.00;152001.69;4995686;28;20472;-75
2022/12/03 06:12:53;;;;;;;20.93;13.40;;;;;;;2.53;100.00;152014.56;4980863;28;20597;-76
2022/12/03 06:15:38;;;;;;;23.70;14.80;;;;;;;2.49;100.00;152005.53;4978160;28;20443;-76
2022/12/03 06:18:25;;;;;;;23.87;14.27;;;;;;;2.51;100.00;152009.41;4965166;28;20895;-76
2022/12/03 06:21:10;;;;;;;18.73;13.50;;;;;;;2.55;100.00;152019.69;4978073;28;20884;-76
2022/12/03 06:23:55;;;;;;;18.77;13.50;;;;;;;2.53;100.00;152014.56;4973858;28;20445;-76
2022/12/03 06:26:41;;;;;;;23.40;14.07;;;;;;;2.45;100.00;151996.56;4975153;28;20513;-76
2022/12/03 06:29:26;;;;;;;21.53;14.67;;;;;;;2.44;100.00;151992.69;4972624;28;20477;-76
2022/12/03 06:32:11;;;;;;;21.07;14.70;;;;;;;2.47;100.00;152000.41;4972515;28;20944;-76
2022/12/03 06:34:58;;;;;;;21.60;13.83;;;;;;;2.46;100.00;151999.09;4981225;28;20458;-76
2022/12/03 06:37:43;;;;;;;21.83;14.60;;;;;;;2.55;100.00;152019.69;4965661;28;20815;-76
2022/12/03 06:40:29;;;;;;;22.33;15.70;;;;;;;2.49;100.00;152005.53;4987049;28;20465;-76
2022/12/03 06:43:14;;;;;;;17.40;12.47;;;;;;;2.46;100.00;151999.09;4982550;28;20499;-76
2022/12/03 06:46:01;;;;;;;22.10;15.77;;;;;;;2.46;100.00;151999.09;4978659;28;20600;-76
2022/12/03 06:48:46;;;;;;;22.60;17.23;;;;;;;2.48;100.00;152003.00;4974245;28;20457;-76
2022/12/03 06:51:33;;;;;;;22.63;15.07;;;;;;;2.43;100.00;151991.44;4972757;28;20589;-75
2022/12/03 06:54:18;;;;;;;27.30;18.27;;;;;;;2.45;100.00;151996.56;4975534;28;20445;-76
2022/12/03 06:57:03;;;;;;;26.30;16.90;;;;;;;2.46;100.00;151999.09;4956150;28;20462;-76
2022/12/03 06:59:48;;;;;;;19.60;14.60;;;;;;;2.50;100.00;152008.13;4968914;28;20454;-75
2022/12/03 07:02:34;;;;;;;25.50;15.73;;;;;;;2.52;100.00;152011.97;4972335;28;20531;-76
2022/12/03 07:05:19;;;;;;;24.97;14.43;;;;;;;2.52;100.00;152013.25;4963205;28;20442;-75
2022/12/03 07:08:07;;;;;;;22.73;17.00;;;;;;;2.56;100.00;152022.28;4974299;28;20434;-75
2022/12/03 07:10:52;;;;;;;25.23;16.23;;;;;;;2.52;100.00;152011.97;4966799;28;20466;-76
2022/12/03 07:13:38;;;;;;;22.67;16.10;;;;;;;2.55;100.00;152020.97;4955943;28;20569;-77
2022/12/03 07:16:23;;;;;;;22.57;16.67;;;;;;;2.60;100.00;152032.53;4966179;28;20565;-76
2022/12/03 07:19:09;;;;;;;21.97;13.50;;;;;;;2.61;100.00;152035.13;4967130;28;20452;-76
2022/12/03 07:21:55;;;;;;;19.10;13.20;;;;;;;2.57;100.00;152024.88;4973036;28;20538;-76
2022/12/03 07:24:41;;;;;;;21.50;14.60;;;;;;;2.52;100.00;152011.97;4971046;28;20909;-75
2022/12/03 07:27:26;;;;;;;23.10;13.90;;;;;;;2.45;100.00;151995.28;4970915;28;20836;-75
2022/12/03 07:30:14;;;;;;;19.80;13.40;;;;;;;2.45;100.00;151996.56;4972915;28;20556;-75
2022/12/03 07:32:59;;;;;;;20.17;12.90;;;;;;;2.41;100.00;151986.25;4969231;28;20433;-75
2022/12/03 07:35:45;;;;;;;26.70;15.73;;;;;;;2.41;100.00;151986.25;4975113;28;20485;-75
2022/12/03 07:38:31;;;;;;;26.13;15.77;;;;;;;2.42;100.00;151987.53;4966682;28;20453;-75
2022/12/03 07:41:17;;;;;;;19.07;14.23;;;;;;;2.45;100.00;151995.28;4968000;28;20577;-75
2022/12/03 07:44:03;;;;;;;23.70;14.67;;;;;;;2.44;100.00;151992.69;4973278;28;20429;-75
2022/12/03 07:46:48;;;;;;;22.10;14.43;;;;;;;2.43;100.00;151991.44;4974306;28;20450;-75
2022/12/03 07:49:33;;;;;;;25.43;14.60;;;;;;;2.42;100.00;151987.53;4969856;28;21007;-75
2022/12/03 07:52:19;;;;;;;23.50;15.27;;;;;;;2.42;100.00;151988.84;4972146;28;20525;-75
2022/12/03 07:55:05;;;;;;;21.53;13.87;;;;;;;2.46;100.00;151997.84;4974801;28;20464;-75
2022/12/03 07:57:51;;;;;;;22.20;15.47;;;;;;;2.52;100.00;152011.97;4971174;28;20457;-75
2022/12/03 08:00:37;;;;;;;21.30;14.63;;;;;;;2.50;100.00;152006.84;4979493;28;20601;-75
2022/12/03 08:03:22;;;;;;;25.50;15.00;;;;;;;2.46;100.00;151999.09;4973932;28;20437;-75
2022/12/03 08:06:08;;;;;;;23.63;16.80;;;;;;;2.39;100.00;151981.13;4952747;28;20492;-75
2022/12/03 08:08:53;;;;;;;21.40;14.87;;;;;;;2.38;100.00;151978.53;4955256;28;20465;-75
2022/12/03 08:11:39;;;;;;;25.60;14.50;;;;;;;2.39;100.00;151981.13;4977054;28;20955;-75
2022/12/03 08:14:26;;;;;;;27.37;14.40;;;;;;;2.44;100.00;151993.97;4997183;28;20437;-75
2022/12/03 08:17:12;;;;;;;19.43;13.63;;;;;;;2.43;100.00;151991.44;4992362;28;20440;-75
2022/12/03 08:19:57;;;;;;;22.77;14.23;;;;;;;2.34;100.00;151968.25;4987601;28;20515;-75
2022/12/03 08:22:43;;;;;;;27.03;15.20;;;;;;;2.35;100.00;151970.84;4985978;28;20432;-75
2022/12/03 08:25:31;;;;;;;22.80;13.50;;;;;;;2.44;100.00;151993.97;4993800;28;20911;-75
2022/12/03 08:28:19;;;;;;;21.87;13.63;;;;;;;2.41;100.00;151986.25;4985191;28;20573;-75
2022/12/03 08:31:17;;;;;;;22.60;14.57;;;;;;;2.31;100.00;151959.25;4978298;28;20453;-75
2022/12/03 08:34:16;;;;;;;27.43;14.40;;;;;;;2.32;100.00;151961.84;4983951;28;20441;-75
2022/12/03 08:37:06;;;;;;;23.20;14.60;;;;;;;2.25;100.00;151943.84;4992742;28;20508;-75
2022/12/03 08:39:54;;;;;;;24.60;14.60;;;;;;;2.29;100.00;151955.41;4992935;28;20584;-76
2022/12/03 08:42:42;;;;;;;24.23;15.90;;;;;;;2.27;100.00;151948.97;4988025;28;20441;-76
2022/12/03 08:45:38;;;;;;;23.13;14.20;;;;;;;2.31;100.00;151960.53;4988503;28;20681;-75
2022/12/03 08:48:32;;;;;;;24.97;15.80;;;;;;;2.31;100.00;151960.53;4986089;28;20519;-75
2022/12/03 08:51:20;;;;;;;27.33;12.80;;;;;;;2.33;100.00;151964.44;4987033;28;20601;-76
2022/12/03 08:54:11;;;;;;;23.83;15.00;;;;;;;2.35;100.00;151970.84;4988817;28;20528;-75
2022/12/03 08:56:56;;;;;;;24.17;14.80;;;;;;;2.32;100.00;151961.84;4990091;28;20952;-75
2022/12/03 08:59:42;;;;;;;24.07;15.20;;;;;;;2.27;100.00;151950.28;4984210;28;21618;-75
2022/12/03 09:02:31;;;;;;;25.53;15.20;;;;;;;2.29;100.00;151955.41;4989489;28;20460;-75
2022/12/03 09:05:20;;;;;;;29.00;15.67;;;;;;;2.26;100.00;151947.69;4990562;28;20964;-75
2022/12/03 09:08:05;;;;;;;26.17;15.40;;;;;;;2.22;100.00;151936.13;4988972;28;20770;-76
2022/12/03 09:10:50;;;;;;;24.23;14.03;;;;;;;2.16;100.00;151920.69;4994213;28;20479;-75
2022/12/03 09:13:36;;;;;;;24.20;14.13;;;;;;;2.11;100.00;151909.13;4971740;28;20523;-75
2022/12/03 09:16:21;;;;;;;23.90;15.00;;;;;;;2.08;100.00;151900.13;4988640;28;20818;-75
2022/12/03 09:19:06;;;;;;;24.07;15.30;;;;;;;2.03;100.00;151888.56;4991747;28;20538;-76
2022/12/03 09:21:53;;;;;;;27.07;14.83;;;;;;;1.99;100.00;151878.25;4993620;28;20481;-75
2022/12/03 09:24:39;;;;;;;25.97;16.67;;;;;;;1.97;100.00;151871.81;4993313;28;20511;-75
2022/12/03 09:27:24;;;;;;;23.60;15.57;;;;;;;1.97;100.00;151873.13;4985890;28;20453;-75
2022/12/03 09:30:11;;;;;;;23.20;13.33;;;;;;;1.90;100.00;151853.84;4991278;28;20496;-75
2022/12/03 09:32:56;;;;;;;26.10;14.70;;;;;;;1.97;100.00;151873.13;4983209;28;20955;-76
2022/12/03 09:35:42;;;;;;;21.83;14.37;;;;;;;1.93;100.00;151862.88;4996421;28;20486;-76
2022/12/03 09:38:28;;;;;;;27.83;14.10;;;;;;;1.94;100.00;151865.41;4979981;28;20445;-76
2022/12/03 09:41:14;;;;;;;26.87;16.20;;;;;;;1.89;100.00;151852.56;4989083;28;20926;-76
2022/12/03 09:43:59;;;;;;;19.60;12.37;;;;;;;1.94;100.00;151865.41;4987338;28;20464;-77
2022/12/03 09:46:45;;;;;;;21.73;12.50;;;;;;;2.01;100.00;151883.44;4993012;28;20475;-75
2022/12/03 09:49:32;;;;;;;29.30;13.93;;;;;;;2.05;100.00;151892.41;4994723;28;20490;-76
2022/12/03 09:52:21;;;;;;;19.10;12.00;;;;;;;2.04;100.00;151891.09;4990127;28;20437;-76
2022/12/03 09:55:16;;;;;;;22.87;13.70;;;;;;;2.03;100.00;151888.56;4981371;28;20802;-75
2022/12/03 09:58:01;;;;;;;20.07;12.07;;;;;;;2.12;100.00;151911.69;4987434;28;20449;-75
2022/12/03 10:00:49;;;;;;;22.50;12.93;;;;;;;2.28;100.00;151952.81;4983592;28;20562;-75
2022/12/03 10:03:34;;;;;;;18.47;12.10;;;;;;;2.22;100.00;151936.13;4998121;28;20587;-77
2022/12/03 10:06:21;;;;;;;26.97;13.70;;;;;;;2.21;100.00;151934.84;4974408;28;20846;-76
2022/12/03 10:09:06;;;;;;;21.23;13.80;;;;;;;2.34;100.00;151968.25;4983791;28;20528;-76
2022/12/03 10:11:53;;;;;;;17.97;11.37;;;;;;;2.19;100.00;151928.41;4988136;28;20468;-76
2022/12/03 10:14:38;;;;;;;17.53;10.80;;;;;;;2.06;100.00;151896.28;4990247;28;20589;-76
2022/12/03 10:17:24;;;;;;;19.10;12.37;;;;;;;2.01;100.00;151883.44;4990976;28;20625;-76
2022/12/03 10:20:12;;;;;;;20.87;13.37;;;;;;;1.95;100.00;151866.69;4987295;28;20441;-76
2022/12/03 10:22:57;;;;;;;23.57;14.37;;;;;;;1.98;100.00;151874.41;4985500;28;20790;-77
2022/12/03 10:25:50;;;;;;;20.00;14.33;;;;;;;2.02;100.00;151885.97;4987812;28;20608;-76
2022/12/03 10:28:38;;;;;;;22.47;13.07;;;;;;;1.93;100.00;151861.56;4987770;28;20460;-77
2022/12/03 10:31:35;;;;;;;23.20;13.33;;;;;;;2.04;100.00;151891.09;4987274;28;20496;-76
2022/12/03 10:34:24;;;;;;;17.00;12.53;;;;;;;1.88;100.00;151849.97;5000583;28;20424;-76
2022/12/03 10:37:12;;;;;;;19.70;12.73;;;;;;;2.01;100.00;151883.44;4988441;28;20693;-77
2022/12/03 10:39:59;;;;;;;21.90;14.67;;;;;;;1.95;100.00;151866.69;4989693;28;20454;-76
2022/12/03 10:42:45;;;;;;;22.30;12.60;;;;;;;1.87;100.00;151846.13;4988739;28;20944;-76
2022/12/03 10:45:31;;;;;;;22.30;14.20;;;;;;;1.89;100.00;151851.25;4989146;28;20457;-77
2022/12/03 10:48:18;;;;;;;18.90;11.20;;;;;;;1.90;100.00;151855.16;4974213;28;20432;-76
2022/12/03 10:51:06;;;;;;;21.77;13.50;;;;;;;1.79;100.00;151826.84;4989774;28;20648;-76
2022/12/03 10:53:53;;;;;;;22.43;13.43;;;;;;;1.80;100.00;151829.44;4988677;28;20444;-77
2022/12/03 10:56:38;;;;;;;22.30;13.10;;;;;;;1.90;100.00;151855.16;4986653;28;20457;-76
2022/12/03 10:59:25;;;;;;;19.07;13.23;;;;;;;1.87;100.00;151847.41;4990193;28;20449;-76
2022/12/03 11:02:14;;;;;;;20.27;11.77;;;;;;;1.85;100.00;151842.28;4990954;28;20766;-76
2022/12/03 11:04:59;;;;;;;17.53;10.53;;;;;;;1.84;100.00;151839.72;4995413;28;20460;-76
2022/12/03 11:07:45;;;;;;;23.50;13.37;;;;;;;1.87;100.00;151846.13;4978136;28;20831;-76
2022/12/03 11:10:30;;;;;;;19.77;11.70;;;;;;;1.90;100.00;151855.16;4976212;28;20484;-77
2022/12/03 11:13:44;;;;;;;17.63;11.40;;;;;;;1.85;100.00;151842.28;4991220;28;20523;-77
2022/12/03 11:17:06;;;;;;;26.13;16.77;;;;;;;1.95;100.00;151868.00;4987140;28;20457;-76
2022/12/03 11:19:53;;;;;;;16.43;11.40;;;;;;;1.90;100.00;151855.16;4988489;28;20440;-76
2022/12/03 11:22:45;;;;;;;26.27;16.27;;;;;;;1.91;100.00;151857.69;4974634;28;20433;-77
2022/12/03 11:25:46;;;;;;;23.93;15.30;;;;;;;1.84;100.00;151839.72;4986605;28;20441;-76
2022/12/03 11:28:33;;;;;;;20.23;13.73;;;;;;;1.89;100.00;151852.56;4980996;28;20452;-76
2022/12/03 11:31:37;;;;;;;16.50;11.37;;;;;;;1.93;100.00;151862.88;4986501;28;20872;-76
2022/12/03 11:34:49;;;;;;;23.47;14.13;;;;;;;1.91;100.00;151857.69;4986742;28;20848;-77
2022/12/03 11:37:36;;;;;;;20.43;13.70;;;;;;;1.95;100.00;151866.69;4985546;28;20523;-76
2022/12/03 11:40:30;;;;;;;16.20;10.87;;;;;;;1.91;100.00;151857.69;4992188;28;20524;-76
2022/12/03 11:43:52;;;;;;;20.83;13.60;;;;;;;1.82;100.00;151835.88;4981139;28;20469;-77
2022/12/03 11:46:42;;;;;;;18.80;14.00;;;;;;;1.80;100.00;151830.69;4982334;28;20477;-76
2022/12/03 11:49:34;;;;;;;18.57;10.93;;;;;;;1.85;100.00;151842.28;4984944;28;20444;-76
2022/12/03 11:52:27;;;;;;;17.20;11.50;;;;;;;1.90;100.00;151855.16;4987995;28;20436;-76
2022/12/03 11:55:18;;;;;;;17.20;11.30;;;;;;;1.83;100.00;151837.13;4982419;28;20461;-76
2022/12/03 11:58:05;;;;;;;19.50;12.40;;;;;;;1.84;100.00;151841.00;4992298;28;20436;-76
2022/12/03 12:00:52;;;;;;;19.60;12.30;;;;;;;1.84;100.00;151841.00;4985406;28;20452;-76
2022/12/03 12:03:42;;;;;;;22.67;13.80;;;;;;;1.84;100.00;151839.72;4985675;28;20452;-76
2022/12/03 12:06:27;;;;;;;18.07;10.90;;;;;;;1.97;100.00;151873.13;4987362;28;20539;-76
2022/12/03 12:09:13;;;;;;;17.43;11.20;;;;;;;1.75;100.00;151817.84;4985028;28;20539;-76
2022/12/03 12:12:17;;;;;;;18.70;11.03;;;;;;;1.76;100.00;151820.44;4983326;28;21015;-76
2022/12/03 12:15:33;;;;;;;19.87;12.10;;;;;;;1.74;100.00;151815.31;4989395;28;20444;-76
2022/12/03 12:18:39;;;;;;;19.20;11.13;;;;;;;1.72;100.00;151808.88;4974403;28;20465;-76
2022/12/03 12:21:41;;;;;;;18.67;11.47;;;;;;;1.83;100.00;151837.13;4994908;28;20452;-76
2022/12/03 12:24:39;;;;;;;16.53;10.83;;;;;;;1.88;100.00;151848.72;4980276;28;20477;-76
2022/12/03 12:27:32;;;;;;;19.70;12.57;;;;;;;1.79;100.00;151826.84;4979153;28;24203;-76
2022/12/03 12:30:20;;;;;;;19.40;13.03;;;;;;;1.79;100.00;151828.16;4992522;28;20863;-76
2022/12/03 12:33:18;;;;;;;22.80;14.83;;;;;;;1.85;100.00;151842.28;4984264;28;20436;-76
2022/12/03 12:36:07;;;;;;;20.40;13.60;;;;;;;1.88;100.00;151848.72;4992418;28;20444;-77
2022/12/03 12:38:53;;;;;;;18.93;12.97;;;;;;;1.83;100.00;151837.13;4983416;28;20439;-76
2022/12/03 12:41:38;;;;;;;18.53;11.50;;;;;;;1.80;100.00;151829.44;4984445;28;20464;-76
2022/12/03 12:44:25;;;;;;;17.60;11.87;;;;;;;1.78;100.00;151824.25;4989924;28;20436;-77
2022/12/03 12:47:12;;;;;;;15.73;11.80;;;;;;;1.82;100.00;151834.56;4985161;28;20457;-77
2022/12/03 12:49:58;;;;;;;23.43;13.43;;;;;;;1.82;100.00;151835.88;4994174;28;20467;-77
2022/12/03 12:52:52;;;;;;;17.07;10.70;;;;;;;1.88;100.00;151849.97;4990589;28;20436;-77
2022/12/03 12:55:38;;;;;;;18.77;11.20;;;;;;;1.83;100.00;151837.13;4983662;28;20461;-76
2022/12/03 12:58:25;;;;;;;22.73;11.60;;;;;;;1.81;100.00;151832.00;4985873;28;20520;-76
2022/12/03 13:01:19;;;;;;;16.73;10.83;;;;;;;1.82;100.00;151834.56;4987761;28;20980;-76
2022/12/03 13:04:10;;;;;;;17.27;11.50;;;;;;;1.79;100.00;151826.84;4980152;28;20887;-76
2022/12/03 13:06:56;;;;;;;17.03;11.40;;;;;;;1.78;100.00;151825.56;4995487;28;20443;-76
2022/12/03 13:09:41;;;;;;;20.50;11.47;;;;;;;1.73;100.00;151811.41;4995536;28;20511;-76
2022/12/03 13:12:26;;;;;;;20.07;11.93;;;;;;;1.75;100.00;151816.56;4987981;28;20523;-76